Time;durP1;ratioP1;P1;durP2;ratioP2;P2;SDS_P1;SDS_P2;PMS_P1;PMS_P2;Temp;Humidity;BMP_temperature;BMP_pressure;BME280_temperature;BME280_humidity;BME280_pressure;Samples;Min_cycle;Max_cycle;Signal;HPM_P1;HPM_P2
2023/04/22 00:01:01;;;;;;;3.45;2.35;;;;;;;;;;4951028;29;20083;-75
2023/04/22 00:03:27;;;;;;;2.15;1.95;;;;;;;;;;4952418;29;20126;-80
2023/04/22 00:05:53;;;;;;;2.90;2.25;;;;;;;;;;4953888;29;20039;-80
2023/04/22 00:08:20;;;;;;;4.38;2.00;;;;;;;;;;4951742;29;20729;-80
2023/04/22 00:10:48;;;;;;;2.47;1.83;;;;;;;;;;4953342;28;20020;-80
2023/04/22 00:13:14;;;;;;;2.10;1.90;;;;;;;;;;4952417;28;20035;-80
2023/04/22 00:15:40;;;;;;;4.35;2.55;;;;;;;;;;4954525;29;20090;-78
2023/04/22 00:18:12;;;;;;;4.47;2.55;;;;;;;;;;4952512;28;20138;-78
2023/04/22 00:20:38;;;;;;;4.53;2.60;;;;;;;;;;4954077;29;20039;-79
2023/04/22 00:23:04;;;;;;;4.97;2.80;;;;;;;;;;4953101;29;20488;-76
2023/04/22 00:25:30;;;;;;;3.30;2.33;;;;;;;;;;4951839;28;20071;-79
2023/04/22 00:27:56;;;;;;;6.90;2.40;;;;;;;;;;4953652;29;20019;-78
2023/04/22 00:30:22;;;;;;;5.13;3.13;;;;;;;;;;4950863;29;20572;-79
2023/04/22 00:32:48;;;;;;;2.97;2.20;;;;;;;;;;4952622;29;20023;-79
2023/04/22 00:35:14;;;;;;;4.35;2.13;;;;;;;;;;4952609;29;20039;-80
2023/04/22 00:37:40;;;;;;;2.83;1.90;;;;;;;;;;4953071;29;20350;-80
2023/04/22 00:40:07;;;;;;;6.50;2.22;;;;;;;;;;4952556;29;20039;-79
2023/04/22 00:42:33;;;;;;;8.75;2.40;;;;;;;;;;4952885;29;20133;-79
2023/04/22 00:44:59;;;;;;;3.83;2.30;;;;;;;;;;4953445;29;20477;-80
2023/04/22 00:47:26;;;;;;;2.55;2.35;;;;;;;;;;4951336;29;20035;-80
2023/04/22 00:49:53;;;;;;;3.78;2.47;;;;;;;;;;4935855;29;20489;-80
2023/04/22 00:52:19;;;;;;;2.15;1.88;;;;;;;;;;4951149;29;20032;-80
2023/04/22 00:54:45;;;;;;;3.03;2.13;;;;;;;;;;4954073;29;20019;-80
2023/04/22 00:57:11;;;;;;;2.38;2.17;;;;;;;;;;4954004;29;20038;-79
2023/04/22 00:59:37;;;;;;;3.38;2.55;;;;;;;;;;4939717;29;20479;-79
2023/04/22 01:02:03;;;;;;;3.75;2.35;;;;;;;;;;4940173;29;20497;-76
2023/04/22 01:04:30;;;;;;;5.03;3.10;;;;;;;;;;4958720;29;20055;-81
2023/04/22 01:06:56;;;;;;;4.25;2.92;;;;;;;;;;4960596;29;20031;-82
2023/04/22 01:09:22;;;;;;;5.15;3.67;;;;;;;;;;4960265;29;20039;-81
2023/04/22 01:11:48;;;;;;;3.80;3.22;;;;;;;;;;4962340;29;20102;-81
2023/04/22 01:14:14;;;;;;;4.00;3.30;;;;;;;;;;4962525;29;20054;-83
2023/04/22 01:16:42;;;;;;;4.07;3.67;;;;;;;;;;4964334;29;20023;-82
2023/04/22 01:19:08;;;;;;;5.10;3.78;;;;;;;;;;4968854;29;20098;-80
2023/04/22 01:21:35;;;;;;;5.32;3.88;;;;;;;;;;4966741;29;20023;-80
2023/04/22 01:24:01;;;;;;;5.43;3.90;;;;;;;;;;4963027;28;20023;-77
2023/04/22 01:26:27;;;;;;;5.38;3.95;;;;;;;;;;4966136;29;20031;-82
2023/04/22 01:28:53;;;;;;;5.82;4.32;;;;;;;;;;4972267;29;20038;-81
2023/04/22 01:31:19;;;;;;;6.35;4.93;;;;;;;;;;4973700;29;20015;-80
2023/04/22 01:33:47;;;;;;;6.10;4.45;;;;;;;;;;4976353;29;20020;-80
2023/04/22 01:36:13;;;;;;;6.43;4.22;;;;;;;;;;4958706;29;20034;-78
2023/04/22 01:38:39;;;;;;;5.97;4.15;;;;;;;;;;4975957;29;20039;-76
2023/04/22 01:41:05;;;;;;;8.82;4.50;;;;;;;;;;4971177;29;20031;-78
2023/04/22 01:43:31;;;;;;;5.47;4.70;;;;;;;;;;4955449;29;20046;-81
2023/04/22 01:45:57;;;;;;;5.47;4.90;;;;;;;;;;4954245;29;20023;-80
2023/04/22 01:48:24;;;;;;;6.82;4.82;;;;;;;;;;4951747;29;20117;-80
2023/04/22 01:50:50;;;;;;;6.43;4.50;;;;;;;;;;4953255;29;20027;-81
2023/04/22 01:53:16;;;;;;;4.50;4.10;;;;;;;;;;4951215;29;20492;-78
2023/04/22 01:55:42;;;;;;;6.25;4.60;;;;;;;;;;4952473;29;20034;-78
2023/04/22 01:58:08;;;;;;;4.63;4.05;;;;;;;;;;4948508;29;20038;-80
2023/04/22 02:00:34;;;;;;;4.72;4.28;;;;;;;;;;4949353;29;20035;-81
2023/04/22 02:03:00;;;;;;;6.00;5.05;;;;;;;;;;4950968;29;20126;-77
2023/04/22 02:05:27;;;;;;;7.55;5.57;;;;;;;;;;4952175;29;20106;-80
2023/04/22 02:07:53;;;;;;;6.57;5.45;;;;;;;;;;4951824;29;20078;-80
2023/04/22 02:10:19;;;;;;;9.23;6.18;;;;;;;;;;4951307;29;20035;-80
2023/04/22 02:12:45;;;;;;;6.28;5.45;;;;;;;;;;4951132;29;20027;-82
2023/04/22 02:15:11;;;;;;;7.43;5.57;;;;;;;;;;4951975;29;20035;-82
2023/04/22 02:17:38;;;;;;;7.03;5.82;;;;;;;;;;4951855;29;20067;-78
2023/04/22 02:20:04;;;;;;;6.85;5.35;;;;;;;;;;4950621;29;20059;-76
2023/04/22 02:22:31;;;;;;;8.35;6.55;;;;;;;;;;4951878;29;20027;-82
2023/04/22 02:24:57;;;;;;;6.93;5.90;;;;;;;;;;4952887;28;20392;-80
2023/04/22 02:27:23;;;;;;;9.82;6.00;;;;;;;;;;4950718;29;20042;-82
2023/04/22 02:29:49;;;;;;;6.40;5.72;;;;;;;;;;4952213;29;20030;-80
2023/04/22 02:32:16;;;;;;;8.93;6.32;;;;;;;;;;4951114;29;20027;-81
2023/04/22 02:34:42;;;;;;;8.55;6.32;;;;;;;;;;4948722;28;20035;-81
2023/04/22 02:37:08;;;;;;;6.32;5.60;;;;;;;;;;4954273;29;20032;-80
2023/04/22 02:39:34;;;;;;;6.90;5.45;;;;;;;;;;4939204;29;20042;-80
2023/04/22 02:42:00;;;;;;;6.13;5.18;;;;;;;;;;4955607;29;20050;-78
2023/04/22 02:44:26;;;;;;;6.63;5.95;;;;;;;;;;4938020;29;20031;-79
2023/04/22 02:46:52;;;;;;;8.10;5.40;;;;;;;;;;4955212;29;20027;-80
2023/04/22 02:49:18;;;;;;;9.38;6.45;;;;;;;;;;4951934;29;20124;-80
2023/04/22 02:51:44;;;;;;;6.95;6.18;;;;;;;;;;4954910;29;20102;-79
2023/04/22 02:54:10;;;;;;;7.70;6.57;;;;;;;;;;4954804;29;20034;-75
2023/04/22 02:56:36;;;;;;;7.53;6.00;;;;;;;;;;4955240;29;20027;-80
2023/04/22 02:59:02;;;;;;;7.40;6.18;;;;;;;;;;4955473;29;20050;-76
2023/04/22 03:01:28;;;;;;;6.82;5.60;;;;;;;;;;4954969;28;20058;-80
2023/04/22 03:03:54;;;;;;;6.70;5.57;;;;;;;;;;4954358;29;20518;-81
2023/04/22 03:06:20;;;;;;;7.28;5.88;;;;;;;;;;4937020;29;20035;-81
2023/04/22 03:08:46;;;;;;;6.95;5.65;;;;;;;;;;4955540;29;20066;-81
2023/04/22 03:11:12;;;;;;;7.10;5.75;;;;;;;;;;4954195;29;20055;-79
2023/04/22 03:13:38;;;;;;;10.05;5.13;;;;;;;;;;4954953;29;20027;-81
2023/04/22 03:16:04;;;;;;;7.65;6.65;;;;;;;;;;4954337;29;20027;-77
2023/04/22 03:18:30;;;;;;;7.10;6.40;;;;;;;;;;4952243;29;20078;-81
2023/04/22 03:20:56;;;;;;;7.28;5.78;;;;;;;;;;4954739;29;20054;-80
2023/04/22 03:23:22;;;;;;;8.10;6.32;;;;;;;;;;4936071;29;20110;-76
2023/04/22 03:25:48;;;;;;;7.57;6.22;;;;;;;;;;4952590;28;20392;-80
2023/04/22 03:28:14;;;;;;;8.07;7.03;;;;;;;;;;4953426;29;20031;-80
2023/04/22 03:30:40;;;;;;;9.25;6.50;;;;;;;;;;4954765;29;20023;-82
2023/04/22 03:33:06;;;;;;;7.50;6.53;;;;;;;;;;4952705;29;20103;-79
2023/04/22 03:35:32;;;;;;;8.18;6.43;;;;;;;;;;4951576;29;20027;-80
2023/04/22 03:37:58;;;;;;;9.45;6.72;;;;;;;;;;4953618;29;20436;-81
2023/04/22 03:40:24;;;;;;;7.72;6.30;;;;;;;;;;4954062;29;20023;-81
2023/04/22 03:42:50;;;;;;;6.85;6.15;;;;;;;;;;4936818;29;20388;-81
2023/04/22 03:45:16;;;;;;;6.30;5.60;;;;;;;;;;4953031;28;20078;-81
2023/04/22 03:47:42;;;;;;;7.93;5.97;;;;;;;;;;4934826;29;20035;-80
2023/04/22 03:50:08;;;;;;;10.45;6.80;;;;;;;;;;4953104;29;20035;-81
2023/04/22 03:52:34;;;;;;;6.25;5.55;;;;;;;;;;4953193;29;20032;-80
2023/04/22 03:55:00;;;;;;;6.03;5.43;;;;;;;;;;4954338;29;20020;-79
2023/04/22 03:57:26;;;;;;;7.40;5.88;;;;;;;;;;4952978;29;20039;-81
2023/04/22 03:59:52;;;;;;;10.15;6.57;;;;;;;;;;4954601;29;20086;-79
2023/04/22 04:02:18;;;;;;;8.10;6.40;;;;;;;;;;4952584;28;20037;-81
2023/04/22 04:04:44;;;;;;;9.73;5.95;;;;;;;;;;4954739;29;20149;-80
2023/04/22 04:07:10;;;;;;;7.75;6.70;;;;;;;;;;4952397;29;20046;-79
2023/04/22 04:09:36;;;;;;;10.73;6.47;;;;;;;;;;4954176;29;20342;-80
2023/04/22 04:12:02;;;;;;;8.63;6.47;;;;;;;;;;4953614;29;20038;-77
2023/04/22 04:14:28;;;;;;;7.80;6.43;;;;;;;;;;4953082;29;20035;-80
2023/04/22 04:16:54;;;;;;;8.32;5.97;;;;;;;;;;4951731;29;20480;-76
2023/04/22 04:19:20;;;;;;;8.18;6.25;;;;;;;;;;4951156;29;20074;-77
2023/04/22 04:21:46;;;;;;;8.07;6.30;;;;;;;;;;4953405;29;20034;-78
2023/04/22 04:24:12;;;;;;;7.65;5.60;;;;;;;;;;4934973;29;20049;-79
2023/04/22 04:26:38;;;;;;;6.72;5.57;;;;;;;;;;4953520;29;20107;-80
2023/04/22 04:29:09;;;;;;;6.50;5.40;;;;;;;;;;4952337;29;20063;-76
2023/04/22 04:31:38;;;;;;;6.95;5.55;;;;;;;;;;4952779;29;20023;-80
2023/04/22 04:34:04;;;;;;;6.93;5.18;;;10.00;99.90;;;;;;4953341;29;20413;-77
2023/04/22 04:36:31;;;;;;;6.68;5.20;;;9.90;99.90;;;;;;4952586;29;20040;-80
2023/04/22 04:38:57;;;;;;;6.63;5.05;;;9.80;99.90;;;;;;4952959;29;20038;-81
2023/04/22 04:41:25;;;;;;;6.50;5.40;;;9.80;99.90;;;;;;4952469;29;20035;-81
2023/04/22 04:43:53;;;;;;;8.65;6.00;;;;;;;;;;4953362;29;20031;-81
2023/04/22 04:46:21;;;;;;;6.78;5.88;;;;;;;;;;4951851;29;20034;-82
2023/04/22 04:48:58;;;;;;;7.93;6.07;;;;;;;;;;4951622;29;20122;-80
2023/04/22 04:51:31;;;;;;;6.82;5.00;;;;;;;;;;4952301;29;20082;-80
2023/04/22 04:54:01;;;;;;;6.20;5.03;;;;;;;;;;4944997;29;20109;-80
2023/04/22 04:56:30;;;;;;;7.90;5.00;;;;;;;;;;4952377;29;20031;-80
2023/04/22 04:58:59;;;;;;;6.13;5.23;;;;;;;;;;4953063;28;20047;-81
2023/04/22 05:01:28;;;;;;;6.65;5.32;;;;;;;;;;4950875;29;20397;-78
2023/04/22 05:03:57;;;;;;;5.60;4.72;;;;;;;;;;4951339;28;20059;-81
2023/04/22 05:06:25;;;;;;;8.25;5.13;;;;;;;;;;4953424;28;20011;-80
2023/04/22 05:08:52;;;;;;;6.03;5.10;;;;;;;;;;4955136;29;20054;-82
2023/04/22 05:11:19;;;;;;;5.88;4.88;;;;;;;;;;4953140;29;20034;-79
2023/04/22 05:13:46;;;;;;;7.05;5.03;;;;;;;;;;4955128;29;20023;-80
2023/04/22 05:16:15;;;;;;;5.47;4.47;;;;;;;;;;4951119;29;20097;-80
2023/04/22 05:18:44;;;;;;;6.68;5.15;;;;;;;;;;4951393;28;20627;-80
2023/04/22 05:21:11;;;;;;;6.05;5.22;;;;;;;;;;4953034;29;20023;-82
2023/04/22 05:23:38;;;;;;;7.88;5.03;;;;;;;;;;4952674;29;20094;-80
2023/04/22 05:26:07;;;;;;;6.05;5.35;;;;;;;;;;4948456;28;20023;-76
2023/04/22 05:28:36;;;;;;;8.27;5.57;;;;;;;;;;4952757;29;20031;-80
2023/04/22 05:31:03;;;;;;;12.30;5.82;;;;;;;;;;4952275;29;20031;-76
2023/04/22 05:33:30;;;;;;;8.95;5.82;;;;;;;;;;4952347;29;20086;-79
2023/04/22 05:35:57;;;;;;;9.38;6.22;;;;;;;;;;4951431;29;20057;-76
2023/04/22 05:38:24;;;;;;;7.50;5.85;;;;;;;;;;4949946;29;20782;-78
2023/04/22 05:40:51;;;;;;;6.65;5.90;;;;;;;;;;4952916;29;20034;-81
2023/04/22 05:43:18;;;;;;;8.82;6.65;;;;;;;;;;4948829;29;20538;-81
2023/04/22 05:45:45;;;;;;;7.10;6.00;;;;;;;;;;4950678;29;20031;-81
2023/04/22 05:48:12;;;;;;;7.93;5.78;;;;;;;;;;4950186;29;20039;-81
2023/04/22 05:50:39;;;;;;;6.97;5.80;;;;;;;;;;4952374;29;20090;-80
2023/04/22 05:53:06;;;;;;;7.18;5.10;;;;;;;;;;4950735;29;20436;-80
2023/04/22 05:55:33;;;;;;;6.82;5.30;;;;;;;;;;4947816;28;20031;-81
2023/04/22 05:58:00;;;;;;;6.35;5.68;;;;;;;;;;4948668;28;20035;-81
2023/04/22 06:00:27;;;;;;;6.43;5.22;;;;;;;;;;4950837;29;20090;-79
2023/04/22 06:02:52;;;;;;;7.05;5.30;;;10.60;99.90;;;;;;4949628;29;20106;-82
2023/04/22 06:05:18;;;;;;;5.40;4.57;;;10.70;99.90;;;;;;4946561;29;20039;-76
2023/04/22 06:07:43;;;;;;;6.35;5.20;;;10.90;99.90;;;;;;4949262;29;20114;-84
2023/04/22 06:10:09;;;;;;;5.43;4.93;;;10.90;99.90;;;;;;4951555;28;20035;-81
2023/04/22 06:12:35;;;;;;;6.93;5.20;;;11.10;99.90;;;;;;4950194;29;20714;-78
2023/04/22 06:15:00;;;;;;;7.78;6.28;;;11.20;99.90;;;;;;4953894;29;20062;-81
2023/04/22 06:17:26;;;;;;;11.23;7.68;;;11.40;99.90;;;;;;4952981;29;20027;-81
2023/04/22 06:19:51;;;;;;;8.45;7.38;;;11.70;99.90;;;;;;4954016;29;20039;-82
2023/04/22 06:22:17;;;;;;;11.10;6.97;;;12.00;99.90;;;;;;4954222;29;20118;-81
2023/04/22 06:24:42;;;;;;;6.80;6.13;;;12.20;99.90;;;;;;4934699;29;20034;-81
2023/04/22 06:27:08;;;;;;;7.93;6.10;;;12.30;99.90;;;;;;4948844;29;20362;-79
2023/04/22 06:29:34;;;;;;;7.22;5.75;;;12.40;99.90;;;;;;4953175;29;20115;-81
2023/04/22 06:31:59;;;;;;;10.38;5.57;;;12.60;99.90;;;;;;4953992;29;20028;-80
2023/04/22 06:34:25;;;;;;;10.15;6.68;;;12.70;99.90;;;;;;4953597;29;20031;-78
2023/04/22 06:36:51;;;;;;;6.88;6.18;;;12.90;99.90;;;;;;4951546;29;20050;-81
2023/04/22 06:39:17;;;;;;;7.90;6.25;;;13.10;99.90;;;;;;4936516;29;20098;-82
2023/04/22 06:41:43;;;;;;;7.72;6.28;;;13.30;99.90;;;;;;4952147;28;20039;-82
2023/04/22 06:44:09;;;;;;;8.65;7.07;;;13.40;99.90;;;;;;4952990;29;20039;-80
2023/04/22 06:46:35;;;;;;;9.57;7.00;;;13.50;99.90;;;;;;4949507;29;20023;-80
2023/04/22 06:49:00;;;;;;;10.25;6.78;;;13.70;99.90;;;;;;4953929;29;20500;-81
2023/04/22 06:51:26;;;;;;;8.73;7.25;;;13.70;99.90;;;;;;4952771;29;20172;-76
2023/04/22 06:53:51;;;;;;;10.68;7.38;;;13.70;99.90;;;;;;4953494;29;20062;-80
2023/04/22 06:56:17;;;;;;;12.88;7.65;;;13.80;99.90;;;;;;4931168;29;20047;-75
2023/04/22 06:58:43;;;;;;;8.07;6.80;;;13.80;99.90;;;;;;4953252;29;20100;-76
2023/04/22 07:01:08;;;;;;;7.80;6.75;;;13.90;99.90;;;;;;4951386;29;20035;-76
2023/04/22 07:03:34;;;;;;;9.20;5.93;;;13.90;99.90;;;;;;4940628;29;20051;-76
2023/04/22 07:06:00;;;;;;;8.40;6.60;;;13.90;99.90;;;;;;4953182;29;20031;-77
2023/04/22 07:08:25;;;;;;;9.55;5.85;;;13.90;99.90;;;;;;4952811;29;20031;-79
2023/04/22 07:10:51;;;;;;;8.45;6.30;;;14.00;99.90;;;;;;4933907;29;20035;-74
2023/04/22 07:13:17;;;;;;;11.43;6.47;;;14.00;99.90;;;;;;4950302;29;20478;-77
2023/04/22 07:15:44;;;;;;;8.48;5.93;;;14.10;99.90;;;;;;4953678;29;20117;-75
2023/04/22 07:18:10;;;;;;;8.48;5.38;;;14.20;99.90;;;;;;4948808;29;20031;-75
2023/04/22 07:20:36;;;;;;;10.48;5.35;;;14.30;99.90;;;;;;4953922;28;20027;-76
2023/04/22 07:23:01;;;;;;;8.15;5.85;;;14.50;99.90;;;;;;4951685;29;20063;-79
2023/04/22 07:25:27;;;;;;;7.25;5.57;;;14.60;99.90;;;;;;4952787;28;20035;-77
2023/04/22 07:27:52;;;;;;;8.35;5.85;;;14.70;99.90;;;;;;4944285;28;20458;-77
2023/04/22 07:30:18;;;;;;;7.18;5.97;;;14.80;99.90;;;;;;4946040;28;20042;-77
2023/04/22 07:32:44;;;;;;;7.53;5.90;;;14.90;99.90;;;;;;4947046;29;20043;-77
2023/04/22 07:35:09;;;;;;;8.98;5.53;;;14.90;99.90;;;;;;4950907;29;20057;-76
2023/04/22 07:37:35;;;;;;;6.22;5.43;;;15.00;99.90;;;;;;4953946;29;20094;-75
2023/04/22 07:40:00;;;;;;;7.22;5.30;;;15.10;99.90;;;;;;4954707;29;20034;-76
2023/04/22 07:42:26;;;;;;;11.50;5.90;;;15.20;99.90;;;;;;4951590;29;20039;-75
2023/04/22 07:44:52;;;;;;;10.07;5.38;;;15.30;99.90;;;;;;4954363;29;20027;-74
2023/04/22 07:47:17;;;;;;;6.13;5.22;;;15.40;99.90;;;;;;4952977;29;20024;-75
2023/04/22 07:49:44;;;;;;;7.10;5.38;;;15.60;99.90;;;;;;4954271;29;20131;-75
2023/04/22 07:52:09;;;;;;;6.47;4.32;;;15.80;99.90;;;;;;4943599;29;20106;-75
2023/04/22 07:54:35;;;;;;;6.00;4.72;;;15.90;99.90;;;;;;4937353;29;20107;-75
2023/04/22 07:57:01;;;;;;;7.65;4.80;;;16.10;99.90;;;;;;4950648;29;20485;-77
2023/04/22 07:59:26;;;;;;;6.00;4.30;;;16.30;99.90;;;;;;4953232;29;20035;-75
2023/04/22 08:01:55;;;;;;;6.05;4.50;;;;;;;;;;4954005;29;20406;-74
2023/04/22 08:04:22;;;;;;;7.93;3.83;;;;;;;;;;4952637;29;20807;-74
2023/04/22 08:06:48;;;;;;;9.45;5.00;;;;;;;;;;4953885;29;20059;-73
2023/04/22 08:09:14;;;;;;;7.55;5.60;;;;;;;;;;4953513;29;20035;-75
2023/04/22 08:11:40;;;;;;;7.18;3.95;;;;;;;;;;4953286;29;20074;-73
2023/04/22 08:14:06;;;;;;;5.93;4.00;;;;;;;;;;4952607;29;20043;-73
2023/04/22 08:16:32;;;;;;;5.22;4.00;;;;;;;;;;4955515;28;20067;-73
2023/04/22 08:18:58;;;;;;;5.07;4.45;;;;;;;;;;4957381;28;20065;-75
2023/04/22 08:21:24;;;;;;;7.60;4.55;;;;;;;;;;4952379;29;20043;-74
2023/04/22 08:23:50;;;;;;;6.20;4.38;;;;;;;;;;4953418;29;20035;-74
2023/04/22 08:26:16;;;;;;;6.10;3.55;;;;;;;;;;4949601;29;20025;-74
2023/04/22 08:28:43;;;;;;;4.22;2.30;;;;;;;;;;4936296;28;20466;-74
2023/04/22 08:31:10;;;;;;;2.55;2.10;;;;;;;;;;4952171;29;20060;-75
2023/04/22 08:33:36;;;;;;;3.88;1.98;;;;;;;;;;4935573;29;20046;-73
2023/04/22 08:36:02;;;;;;;3.08;1.88;;;;;;;;;;4952955;29;20031;-74
2023/04/22 08:38:28;;;;;;;3.75;2.20;;;;;;;;;;4952731;29;20062;-74
2023/04/22 08:40:57;;;;;;;3.25;2.08;;;;;;;;;;4953388;29;20038;-74
2023/04/22 08:43:25;;;;;;;2.30;1.90;;;;;;;;;;4951543;29;20476;-74
2023/04/22 08:45:51;;;;;;;2.58;1.70;;;;;;;;;;4953239;29;20038;-74
2023/04/22 08:48:18;;;;;;;2.55;1.65;;;;;;;;;;4951734;29;20035;-75
2023/04/22 08:50:46;;;;;;;1.88;1.58;;;;;;;;;;4952597;29;20560;-73
2023/04/22 08:53:12;;;;;;;1.98;1.80;;;;;;;;;;4951794;29;20155;-74
2023/04/22 08:55:40;;;;;;;3.33;1.90;;;;;;;;;;4952908;29;20031;-74
2023/04/22 08:58:06;;;;;;;2.03;1.67;;;;;;;;;;4949270;29;20031;-74
2023/04/22 09:00:33;;;;;;;1.73;1.52;;;;;;;;;;4952078;29;20441;-74
2023/04/22 09:03:04;;;;;;;2.28;2.08;;;;;;;;;;4951442;29;20126;-74
2023/04/22 09:05:32;;;;;;;4.35;1.92;;;19.60;99.90;;;;;;4951855;29;20465;-75
2023/04/22 09:08:02;;;;;;;3.22;1.67;;;;;;;;;;4934628;29;20473;-74
2023/04/22 09:10:29;;;;;;;4.65;1.88;;;;;;;;;;4945939;29;20074;-74
2023/04/22 09:12:56;;;;;;;3.10;1.20;;;;;;;;;;4947338;29;20042;-76
2023/04/22 09:15:21;;;;;;;4.15;1.70;;;20.10;95.80;;;;;;4951596;29;20086;-74
2023/04/22 09:17:50;;;;;;;2.00;1.40;;;20.00;95.70;;;;;;4951035;29;20027;-75
2023/04/22 09:20:17;;;;;;;1.50;1.40;;;20.10;95.00;;;;;;4952055;28;20070;-73
2023/04/22 09:22:48;;;;;;;1.98;1.58;;;20.30;94.80;;;;;;4954572;28;20038;-74
2023/04/22 09:25:25;;;;;;;3.03;1.67;;;20.50;95.20;;;;;;4951271;29;20078;-74
2023/04/22 09:27:53;;;;;;;2.03;1.48;;;20.80;93.30;;;;;;4949391;29;20035;-76
2023/04/22 09:30:30;;;;;;;1.70;1.48;;;20.90;93.20;;;;;;4950871;29;20114;-73
2023/04/22 09:33:01;;;;;;;2.40;1.65;;;;;;;;;;4946842;29;20075;-75
2023/04/22 09:35:27;;;;;;;1.25;1.15;;;;;;;;;;4950509;29;20123;-74
2023/04/22 09:37:53;;;;;;;3.72;1.58;;;;;;;;;;4946446;29;20106;-74
2023/04/22 09:40:19;;;;;;;2.03;1.80;;;21.70;89.80;;;;;;4951251;29;20451;-74
2023/04/22 09:42:49;;;;;;;1.30;1.23;;;21.70;90.10;;;;;;4951299;29;20436;-74
2023/04/22 09:45:34;;;;;;;4.00;1.92;;;21.70;88.50;;;;;;4951589;28;20114;-75
2023/04/22 09:48:10;;;;;;;3.75;1.80;;;21.80;88.70;;;;;;4952285;29;20035;-75
2023/04/22 09:50:39;;;;;;;2.22;1.73;;;21.90;88.10;;;;;;4952434;29;20027;-74
2023/04/22 09:53:08;;;;;;;3.78;1.63;;;21.90;88.00;;;;;;4954159;29;20027;-74
2023/04/22 09:55:39;;;;;;;2.83;1.52;;;22.00;87.90;;;;;;4954540;29;20122;-72
2023/04/22 09:58:12;;;;;;;2.97;1.77;;;22.00;87.90;;;;;;4952936;29;20042;-73
2023/04/22 10:00:46;;;;;;;2.60;1.45;;;21.90;87.20;;;;;;4931576;29;20039;-74
2023/04/22 10:03:12;;;;;;;1.90;1.50;;;21.90;87.30;;;;;;4912847;29;1082769;-73
2023/04/22 10:05:38;;;;;;;1.63;1.30;;;22.00;87.10;;;;;;4956069;29;20162;-72
2023/04/22 10:08:05;;;;;;;3.10;1.75;;;22.20;86.60;;;;;;4954448;29;20087;-73
2023/04/22 10:10:31;;;;;;;1.77;1.40;;;22.50;85.40;;;;;;4956036;29;20042;-72
2023/04/22 10:12:57;;;;;;;4.35;1.60;;;22.50;84.70;;;;;;4955112;29;20031;-74
2023/04/22 10:15:24;;;;;;;3.65;1.70;;;22.70;84.60;;;;;;4952956;28;20027;-75
2023/04/22 10:17:52;;;;;;;3.10;1.45;;;23.00;97.50;;;;;;4955167;29;20019;-74
2023/04/22 10:20:19;;;;;;;1.80;1.40;;;23.10;99.90;;;;;;4954733;29;20472;-74
2023/04/22 10:22:45;;;;;;;2.03;1.50;;;23.30;99.90;;;;;;4953679;29;20035;-74
2023/04/22 10:25:22;;;;;;;1.65;1.55;;;23.40;81.00;;;;;;4958349;28;20094;-74
2023/04/22 10:28:05;;;;;;;1.55;1.30;;;23.50;81.30;;;;;;4954815;29;20033;-75
2023/04/22 10:30:36;;;;;;;2.78;1.17;;;23.60;80.10;;;;;;4955188;29;20488;-73
2023/04/22 10:33:19;;;;;;;1.50;1.40;;;23.70;76.50;;;;;;4955012;29;20023;-76
2023/04/22 10:36:07;;;;;;;1.70;1.20;;;23.90;76.10;;;;;;4954014;29;20031;-74
2023/04/22 10:38:37;;;;;;;2.65;1.50;;;24.00;76.60;;;;;;4954892;29;20066;-74
2023/04/22 10:41:03;;;;;;;2.05;1.48;;;24.20;75.40;;;;;;4955293;29;20035;-76
2023/04/22 10:43:57;;;;;;;2.72;1.25;;;24.30;73.70;;;;;;4954573;29;20034;-75
2023/04/22 10:46:51;;;;;;;2.03;1.27;;;24.50;72.80;;;;;;4947720;28;20050;-73
2023/04/22 10:49:22;;;;;;;3.15;1.33;;;24.60;70.70;;;;;;4945195;29;20488;-74
2023/04/22 10:51:50;;;;;;;4.22;1.25;;;24.70;67.40;;;;;;4954144;29;20424;-74
2023/04/22 10:54:28;;;;;;;1.88;1.25;;;24.80;65.40;;;;;;4954791;29;20047;-74
2023/04/22 10:57:02;;;;;;;5.30;1.30;;;24.70;65.80;;;;;;4954128;29;20035;-72
2023/04/22 10:59:28;;;;;;;1.50;1.40;;;24.90;65.80;;;;;;4952902;29;20134;-73
2023/04/22 11:01:53;;;;;;;1.98;1.48;;;24.90;67.10;;;;;;4954284;29;20114;-73
2023/04/22 11:04:23;;;;;;;4.55;1.77;;;25.10;66.40;;;;;;4953573;29;20051;-72
2023/04/22 11:07:15;;;;;;;3.58;1.63;;;25.20;65.40;;;;;;4951231;29;20362;-73
2023/04/22 11:09:44;;;;;;;4.45;1.27;;;25.20;66.90;;;;;;4924140;29;20341;-73
2023/04/22 11:12:34;;;;;;;2.78;1.60;;;25.40;67.00;;;;;;4953356;29;20473;-75
2023/04/22 11:15:30;;;;;;;3.38;1.70;;;25.40;65.80;;;;;;4953867;29;20059;-75
2023/04/22 11:17:56;;;;;;;4.97;1.55;;;25.50;63.40;;;;;;4930978;29;20074;-75
2023/04/22 11:20:22;;;;;;;3.38;1.77;;;25.40;63.60;;;;;;4953833;29;20050;-73
2023/04/22 11:22:53;;;;;;;4.93;1.73;;;25.40;63.50;;;;;;4954057;29;20323;-73
2023/04/22 11:25:20;;;;;;;3.72;1.52;;;25.60;63.20;;;;;;4951736;29;20031;-71
2023/04/22 11:27:46;;;;;;;2.05;1.60;;;25.70;63.30;;;;;;4955807;28;20461;-75
2023/04/22 11:30:14;;;;;;;1.50;1.33;;;25.80;63.10;;;;;;4953551;29;20091;-75
2023/04/22 11:32:49;;;;;;;1.90;1.70;;;26.00;62.30;;;;;;4953196;29;20042;-73
2023/04/22 11:35:20;;;;;;;6.18;1.83;;;26.10;60.40;;;;;;4953109;29;20059;-73
2023/04/22 11:37:54;;;;;;;1.88;1.40;;;26.20;59.30;;;;;;4953785;29;20090;-77
2023/04/22 11:40:24;;;;;;;4.80;1.75;;;26.20;58.70;;;;;;4953537;29;20039;-73
2023/04/22 11:42:49;;;;;;;1.90;1.58;;;26.40;58.60;;;;;;4953465;29;20031;-73
2023/04/22 11:45:15;;;;;;;2.55;1.38;;;26.70;58.60;;;;;;4953000;29;20045;-76
2023/04/22 11:47:41;;;;;;;2.05;1.80;;;26.80;59.60;;;;;;4952103;29;20069;-74
2023/04/22 11:50:10;;;;;;;2.10;1.40;;;27.00;59.10;;;;;;4952991;29;20081;-75
2023/04/22 11:52:46;;;;;;;2.97;1.30;;;27.10;56.40;;;;;;4952707;29;20094;-74
2023/04/22 11:55:13;;;;;;;2.33;1.63;;;27.10;56.00;;;;;;4952563;29;20027;-74
2023/04/22 11:57:39;;;;;;;3.00;1.73;;;27.10;56.70;;;;;;4952908;29;20085;-75
2023/04/22 12:00:06;;;;;;;4.75;1.60;;;;;;;;;;4952839;29;20065;-75
2023/04/22 12:02:32;;;;;;;1.98;1.85;;;27.80;54.60;;;;;;4953131;29;20055;-73
2023/04/22 12:05:00;;;;;;;4.75;1.50;;;;;;;;;;4953571;29;20532;-74
2023/04/22 12:07:26;;;;;;;2.65;1.50;;;;;;;;;;4951320;28;20504;-74
2023/04/22 12:09:56;;;;;;;3.72;1.67;;;;;;;;;;4953815;29;20132;-71
2023/04/22 12:12:28;;;;;;;3.13;1.87;;;;;;;;;;4953044;29;20476;-70
2023/04/22 12:14:56;;;;;;;3.83;1.80;;;;;;;;;;4952495;29;20262;-70
2023/04/22 12:17:25;;;;;;;2.08;1.30;;;;;;;;;;4949733;29;20027;-70
2023/04/22 12:19:54;;;;;;;4.25;1.52;;;;;;;;;;4953477;29;20365;-73
2023/04/22 12:22:25;;;;;;;3.63;1.52;;;;;;;;;;4952381;29;20039;-74
2023/04/22 12:24:51;;;;;;;6.45;1.90;;;;;;;;;;4953076;29;20027;-69
2023/04/22 12:27:16;;;;;;;2.85;1.65;;;;;;;;;;4951861;29;20029;-69
2023/04/22 12:29:51;;;;;;;5.47;1.70;;;;;;;;;;4953192;29;20083;-71
2023/04/22 12:32:17;;;;;;;2.42;1.80;;;;;;;;;;4957376;28;20058;-70
2023/04/22 12:34:43;;;;;;;3.72;1.67;;;;;;;;;;4953251;29;20397;-70
2023/04/22 12:37:08;;;;;;;5.35;1.88;;;;;;;;;;4951414;29;20090;-71
2023/04/22 12:39:36;;;;;;;4.32;2.00;;;;;;;;;;4935767;29;20038;-70
2023/04/22 12:42:04;;;;;;;4.35;2.00;;;;;;;;;;4951706;29;20019;-78
2023/04/22 12:44:30;;;;;;;4.30;1.77;;;;;;;;;;4953497;29;20034;-70
2023/04/22 12:46:56;;;;;;;2.38;1.42;;;;;;;;;;4950949;29;20023;-71
2023/04/22 12:49:22;;;;;;;6.15;1.85;;;;;;;;;;4951807;29;20138;-70
2023/04/22 12:51:48;;;;;;;3.30;1.60;;;;;;;;;;4952385;29;20110;-70
2023/04/22 12:54:14;;;;;;;2.17;1.60;;;;;;;;;;4952405;29;20086;-70
2023/04/22 12:56:40;;;;;;;2.63;1.48;;;;;;;;;;4952240;29;20030;-73
2023/04/22 12:59:06;;;;;;;3.45;1.80;;;;;;;;;;4951403;29;20078;-72
2023/04/22 13:01:32;;;;;;;2.42;1.50;;;;;;;;;;4952382;29;20031;-68
2023/04/22 13:03:58;;;;;;;4.07;1.98;;;;;;;;;;4946726;29;20043;-72
2023/04/22 13:06:24;;;;;;;5.07;1.70;;;;;;;;;;4951614;29;20021;-72
2023/04/22 13:08:50;;;;;;;5.00;1.95;;;;;;;;;;4953093;29;20387;-70
2023/04/22 13:11:16;;;;;;;4.13;1.65;;;;;;;;;;4951299;29;20400;-69
2023/04/22 13:13:42;;;;;;;2.35;1.50;;;;;;;;;;4953282;29;20033;-69
2023/04/22 13:16:08;;;;;;;4.07;1.67;;;;;;;;;;4949166;28;20385;-74
2023/04/22 13:18:34;;;;;;;3.53;1.73;;;;;;;;;;4951997;28;20147;-72
2023/04/22 13:21:00;;;;;;;3.83;1.90;;;;;;;;;;4951185;29;20039;-70
2023/04/22 13:23:26;;;;;;;2.42;1.30;;;;;;;;;;4947437;29;20023;-69
2023/04/22 13:25:53;;;;;;;2.17;1.50;;;;;;;;;;4951650;29;20028;-72
2023/04/22 13:28:19;;;;;;;3.25;1.45;;;;;;;;;;4950600;29;20031;-72
2023/04/22 13:30:45;;;;;;;4.30;1.50;;;;;;;;;;4953846;28;20023;-74
2023/04/22 13:33:11;;;;;;;5.45;1.90;;;;;;;;;;4950811;29;20041;-73
2023/04/22 13:35:36;;;;;;;1.45;1.35;;;24.50;57.50;;;;;;4958306;28;20015;-72
2023/04/22 13:38:02;;;;;;;2.50;1.60;;;24.70;58.40;;;;;;4951412;29;20083;-75
2023/04/22 13:40:28;;;;;;;4.60;1.73;;;24.70;57.80;;;;;;4951881;29;20043;-71
2023/04/22 13:42:54;;;;;;;5.75;1.75;;;24.50;57.80;;;;;;4951727;29;20050;-70
2023/04/22 13:45:19;;;;;;;2.90;1.60;;;24.40;59.00;;;;;;4950229;29;20034;-70
2023/04/22 13:47:45;;;;;;;5.72;1.70;;;24.30;58.90;;;;;;4950532;29;20409;-70
2023/04/22 13:50:11;;;;;;;2.10;1.40;;;24.30;59.00;;;;;;4948516;29;20035;-75
2023/04/22 13:52:37;;;;;;;3.30;1.52;;;24.40;60.00;;;;;;4948786;29;20039;-70
2023/04/22 13:55:03;;;;;;;1.80;1.27;;;24.40;59.40;;;;;;4951569;29;20067;-71